createdAt,value
2023-01-25T00:00:50.309Z,12.75
2023-01-25T00:03:17.543Z,11.80
2023-01-25T00:05:44.504Z,11.82
2023-01-25T00:08:11.616Z,11.38
2023-01-25T00:10:38.696Z,12.93
2023-01-25T00:13:05.873Z,14.73
2023-01-25T00:15:32.720Z,12.75
2023-01-25T00:17:59.948Z,13.85
2023-01-25T00:20:27.049Z,12.57
2023-01-25T00:22:53.981Z,12.43
2023-01-25T00:25:20.896Z,13.00
2023-01-25T00:27:47.995Z,12.98
2023-01-25T00:30:17.211Z,11.10
2023-01-25T00:33:08.793Z,9.90
2023-01-25T00:35:35.863Z,11.77
2023-01-25T00:38:18.410Z,12.27
2023-01-25T00:40:45.435Z,13.20
2023-01-25T00:43:14.499Z,11.88
2023-01-25T00:45:41.623Z,11.40
2023-01-25T00:48:09.389Z,13.52
2023-01-25T00:50:39.622Z,12.00
2023-01-25T00:53:07.640Z,14.65
2023-01-25T00:55:34.564Z,10.90
2023-01-25T00:58:01.579Z,12.32
2023-01-25T01:00:28.645Z,11.43
2023-01-25T01:02:57.325Z,10.98
2023-01-25T01:05:24.373Z,10.80
2023-01-25T01:07:51.494Z,10.50
2023-01-25T01:10:19.291Z,13.35
2023-01-25T01:12:46.149Z,10.57
2023-01-25T01:15:13.060Z,10.73
2023-01-25T01:17:40.174Z,11.32
2023-01-25T01:20:07.454Z,11.18
2023-01-25T01:22:34.561Z,11.18
2023-01-25T01:25:01.651Z,9.85
2023-01-25T01:27:30.315Z,11.35
2023-01-25T01:29:57.648Z,11.35
2023-01-25T01:32:24.787Z,12.65
2023-01-25T01:34:52.119Z,11.13
2023-01-25T01:37:19.091Z,12.20
2023-01-25T01:39:46.032Z,10.50
2023-01-25T01:42:12.985Z,13.00
2023-01-25T01:44:51.498Z,11.43
2023-01-25T01:47:41.431Z,13.35
2023-01-25T01:50:21.207Z,10.10
2023-01-25T01:52:50.554Z,12.20
2023-01-25T01:55:22.670Z,11.45
2023-01-25T01:57:58.198Z,10.63
2023-01-25T02:00:29.857Z,10.85
2023-01-25T02:02:58.511Z,11.70
2023-01-25T02:06:03.879Z,9.73
2023-01-25T02:08:35.902Z,15.18
2023-01-25T02:11:05.174Z,13.93
2023-01-25T02:16:00.844Z,16.95
2023-01-25T02:18:29.492Z,14.27
2023-01-25T02:20:59.874Z,14.23
2023-01-25T02:23:40.750Z,13.68
2023-01-25T02:26:10.229Z,13.70
2023-01-25T02:28:49.789Z,15.95
2023-01-25T02:31:17.868Z,10.60
2023-01-25T02:33:45.147Z,9.80
2023-01-25T02:36:12.023Z,11.60
2023-01-25T02:38:43.124Z,11.25
2023-01-25T02:41:21.589Z,10.55
2023-01-25T02:43:48.612Z,12.15
2023-01-25T02:46:22.671Z,11.30
2023-01-25T02:48:49.714Z,10.50
2023-01-25T02:51:16.640Z,12.35
2023-01-25T02:53:43.768Z,11.85
2023-01-25T02:56:10.879Z,12.13
2023-01-25T02:58:38.245Z,11.45
2023-01-25T03:01:05.220Z,12.75
2023-01-25T03:03:32.309Z,11.32
2023-01-25T03:05:59.213Z,10.98
2023-01-25T03:08:27.841Z,11.85
2023-01-25T03:10:59.724Z,10.32
2023-01-25T03:13:29.702Z,11.30
2023-01-25T03:16:02.856Z,9.88
2023-01-25T03:18:30.329Z,9.13
2023-01-25T03:21:04.659Z,10.65
2023-01-25T03:23:31.829Z,8.52
2023-01-25T03:26:13.162Z,8.30
2023-01-25T03:28:55.355Z,9.63
2023-01-25T03:31:23.199Z,10.85
2023-01-25T03:33:50.980Z,8.23
2023-01-25T03:36:19.798Z,9.77
2023-01-25T03:38:47.326Z,7.40
2023-01-25T03:41:15.158Z,12.52
2023-01-25T03:43:44.204Z,12.65
2023-01-25T03:46:11.216Z,11.32
2023-01-25T03:48:39.054Z,11.02
2023-01-25T03:51:06.401Z,10.05
2023-01-25T03:53:33.949Z,9.00
2023-01-25T03:56:17.757Z,10.98
2023-01-25T03:58:51.647Z,9.45
2023-01-25T04:01:19.416Z,8.55
2023-01-25T04:03:46.437Z,10.52
2023-01-25T04:06:13.578Z,9.30
2023-01-25T04:08:40.599Z,11.57
2023-01-25T04:11:10.499Z,12.60
2023-01-25T04:13:38.836Z,12.52
2023-01-25T04:16:12.307Z,9.77
2023-01-25T04:18:59.617Z,9.00
2023-01-25T04:21:28.366Z,16.60
2023-01-25T04:23:56.328Z,11.60
2023-01-25T04:26:23.643Z,8.65
2023-01-25T04:28:58.391Z,11.25
2023-01-25T04:31:25.530Z,10.43
2023-01-25T04:33:53.088Z,10.27
2023-01-25T04:36:20.815Z,10.50
2023-01-25T04:38:48.327Z,9.00
2023-01-25T04:41:15.503Z,10.65
2023-01-25T04:43:44.245Z,10.38
2023-01-25T04:46:11.550Z,8.73
2023-01-25T04:48:39.415Z,9.68
2023-01-25T04:51:09.496Z,10.05
2023-01-25T04:53:37.087Z,11.32
2023-01-25T04:58:43.218Z,11.82
2023-01-25T05:01:11.563Z,11.98
2023-01-25T05:03:38.919Z,10.27
2023-01-25T05:06:12.874Z,10.45
2023-01-25T05:08:40.056Z,8.57
2023-01-25T05:11:07.236Z,9.23
2023-01-25T05:13:48.594Z,9.85
2023-01-25T05:16:22.400Z,11.00
2023-01-25T05:18:49.728Z,11.75
2023-01-25T05:21:39.839Z,10.10
2023-01-25T05:24:08.679Z,12.00
2023-01-25T05:26:54.304Z,9.82
2023-01-25T05:29:22.052Z,8.05
2023-01-25T05:31:55.237Z,11.43
2023-01-25T05:34:22.403Z,11.27
2023-01-25T05:36:50.464Z,9.20
2023-01-25T05:39:18.135Z,12.35
2023-01-25T05:41:47.637Z,13.48
2023-01-25T05:44:15.433Z,9.82
2023-01-25T05:46:46.544Z,11.50
2023-01-25T05:49:15.070Z,10.32
2023-01-25T05:51:42.482Z,10.32
2023-01-25T05:54:15.259Z,13.60
2023-01-25T05:56:49.536Z,10.70
2023-01-25T06:01:44.806Z,11.18
2023-01-25T06:04:15.980Z,10.52
2023-01-25T06:06:43.838Z,11.23
2023-01-25T06:09:12.418Z,10.98
2023-01-25T06:11:42.903Z,12.05
2023-01-25T06:14:10.201Z,11.38
2023-01-25T06:16:38.270Z,11.57
2023-01-25T06:19:23.746Z,9.02
2023-01-25T06:22:10.305Z,10.70
2023-01-25T06:24:37.436Z,7.82
2023-01-25T06:27:04.468Z,9.05
2023-01-25T06:29:31.516Z,10.68
2023-01-25T06:31:59.041Z,9.48
2023-01-25T06:34:26.318Z,11.40
2023-01-25T06:36:54.368Z,11.77
2023-01-25T06:39:21.490Z,9.35
2023-01-25T06:41:48.586Z,10.45
2023-01-25T06:44:18.169Z,11.57
2023-01-25T06:46:45.117Z,11.63
2023-01-25T06:49:12.647Z,12.18
2023-01-25T06:51:39.839Z,11.68
2023-01-25T06:54:06.875Z,14.30
2023-01-25T06:56:33.873Z,13.13
2023-01-25T06:59:00.967Z,9.48
2023-01-25T07:01:30.428Z,10.20
2023-01-25T07:03:59.145Z,8.75
2023-01-25T07:06:32.109Z,9.10
2023-01-25T07:09:06.911Z,10.02
2023-01-25T07:11:34.394Z,8.18
2023-01-25T07:14:01.449Z,13.68
2023-01-25T07:16:28.513Z,10.10
2023-01-25T07:18:55.755Z,12.05
2023-01-25T07:21:23.940Z,11.00
2023-01-25T07:23:51.580Z,9.05
2023-01-25T07:26:24.705Z,9.18
2023-01-25T07:28:52.843Z,10.88
2023-01-25T07:31:20.988Z,9.52
2023-01-25T07:33:49.716Z,7.57
2023-01-25T07:36:17.165Z,10.02
2023-01-25T07:38:44.399Z,10.68
2023-01-25T07:41:12.255Z,8.52
2023-01-25T07:43:39.550Z,9.75
2023-01-25T07:46:12.618Z,8.75
2023-01-25T07:48:45.195Z,7.30
2023-01-25T07:51:12.702Z,9.27
2023-01-25T07:53:44.493Z,10.32
2023-01-25T07:56:12.759Z,13.15
2023-01-25T07:58:40.234Z,11.40
2023-01-25T08:01:12.984Z,14.27
2023-01-25T08:03:40.191Z,12.80
2023-01-25T08:06:08.275Z,12.25
2023-01-25T08:08:55.575Z,11.35
2023-01-25T08:11:26.437Z,10.95
2023-01-25T08:13:54.199Z,11.77
2023-01-25T08:16:24.389Z,12.35
2023-01-25T08:18:54.339Z,10.95
2023-01-25T08:21:24.436Z,13.65
2023-01-25T08:23:52.026Z,16.67
2023-01-25T08:26:19.132Z,12.48
2023-01-25T08:28:46.131Z,13.10
2023-01-25T08:31:19.211Z,15.65
2023-01-25T08:33:47.000Z,13.63
2023-01-25T08:36:15.553Z,13.43
2023-01-25T08:38:45.781Z,12.63
2023-01-25T08:41:18.250Z,14.55
2023-01-25T08:43:46.814Z,13.18
2023-01-25T08:46:15.749Z,12.43
2023-01-25T08:48:42.623Z,11.63
2023-01-25T08:51:12.795Z,14.93
2023-01-25T08:53:39.726Z,12.18
2023-01-25T08:56:10.408Z,12.70
2023-01-25T09:01:07.605Z,14.52
2023-01-25T09:06:06.767Z,11.63
2023-01-25T09:08:34.417Z,12.18
2023-01-25T09:11:07.480Z,13.20
2023-01-25T09:13:34.627Z,13.60
2023-01-25T09:16:03.126Z,14.70
2023-01-25T09:18:31.234Z,13.98
2023-01-25T09:20:59.091Z,12.65
2023-01-25T09:23:26.991Z,10.77
2023-01-25T09:25:58.720Z,11.88
2023-01-25T09:28:27.191Z,14.65
2023-01-25T09:31:18.791Z,13.40
2023-01-25T09:34:15.258Z,15.88
2023-01-25T09:36:42.907Z,18.25
2023-01-25T09:39:14.467Z,11.68
2023-01-25T09:41:44.502Z,12.80
2023-01-25T09:44:53.020Z,13.63
2023-01-25T09:47:42.935Z,12.15
2023-01-25T09:50:28.634Z,9.98
2023-01-25T09:53:15.995Z,11.75
2023-01-25T09:55:43.201Z,12.88
2023-01-25T09:58:20.814Z,15.23
2023-01-25T10:00:52.811Z,11.60
2023-01-25T10:03:34.274Z,12.23
2023-01-25T10:06:03.006Z,11.45
2023-01-25T10:08:43.048Z,13.57
2023-01-25T10:11:30.477Z,13.43
2023-01-25T10:13:59.145Z,13.02
2023-01-25T10:16:33.260Z,10.20
2023-01-25T10:19:10.580Z,8.90
2023-01-25T10:21:47.369Z,10.82
2023-01-25T10:24:26.662Z,9.55
2023-01-25T10:29:33.263Z,9.73
2023-01-25T10:32:19.852Z,13.05
2023-01-25T10:34:57.166Z,9.85
2023-01-25T10:37:32.251Z,8.90
2023-01-25T10:39:59.943Z,13.57
2023-01-25T10:42:30.409Z,11.57
2023-01-25T10:44:57.377Z,11.48
2023-01-25T10:47:27.617Z,11.48
2023-01-25T10:49:56.986Z,10.32
2023-01-25T10:52:30.273Z,10.43
2023-01-25T10:55:16.054Z,10.60
2023-01-25T10:58:00.939Z,9.10
2023-01-25T11:00:51.897Z,11.75
2023-01-25T11:03:22.491Z,9.82
2023-01-25T11:05:57.520Z,9.77
2023-01-25T11:08:30.770Z,10.15
2023-01-25T11:11:02.465Z,8.27
2023-01-25T11:13:33.421Z,8.27
2023-01-25T11:16:01.931Z,7.63
2023-01-25T11:18:35.140Z,9.32
2023-01-25T11:21:19.577Z,11.20
2023-01-25T11:24:02.030Z,11.68
2023-01-25T11:26:31.938Z,8.95
2023-01-25T11:29:15.531Z,11.63
2023-01-25T11:31:46.646Z,10.15
2023-01-25T11:34:16.717Z,8.63
2023-01-25T11:37:07.736Z,7.93
2023-01-25T11:39:50.332Z,9.60
2023-01-25T11:42:28.540Z,8.52
2023-01-25T11:45:20.081Z,9.95
2023-01-25T11:48:06.542Z,9.80
2023-01-25T11:50:47.546Z,9.45
2023-01-25T11:53:34.140Z,10.63
2023-01-25T11:56:09.729Z,9.82
2023-01-25T11:58:58.345Z,11.52
2023-01-25T12:01:51.657Z,9.30
2023-01-25T12:04:37.603Z,8.65
2023-01-25T12:07:34.749Z,9.77
2023-01-25T12:10:22.800Z,10.55
2023-01-25T12:13:48.454Z,9.05
2023-01-25T12:16:30.528Z,9.20
2023-01-25T12:19:13.997Z,9.63
2023-01-25T12:22:21.984Z,8.95
2023-01-25T12:24:54.862Z,9.90
2023-01-25T12:27:31.218Z,9.77
2023-01-25T12:30:21.779Z,9.27
2023-01-25T12:33:08.890Z,9.35
2023-01-25T12:35:47.038Z,8.40
2023-01-25T12:38:27.676Z,9.40
2023-01-25T12:41:18.998Z,7.30
2023-01-25T12:43:52.525Z,8.30
2023-01-25T12:46:34.784Z,10.18
2023-01-25T12:49:11.974Z,7.72
2023-01-25T12:51:41.716Z,11.85
2023-01-25T12:54:30.368Z,8.68
2023-01-25T12:57:16.660Z,8.25
2023-01-25T12:59:50.539Z,12.20
2023-01-25T13:02:39.495Z,9.20
2023-01-25T13:05:22.241Z,10.20
2023-01-25T13:07:55.757Z,11.70
2023-01-25T13:10:45.996Z,11.25
2023-01-25T13:13:29.269Z,8.02
2023-01-25T13:15:57.776Z,8.80
2023-01-25T13:18:24.698Z,11.00
2023-01-25T13:21:00.838Z,11.32
2023-01-25T13:23:50.855Z,9.18
2023-01-25T13:26:21.323Z,9.95
2023-01-25T13:28:53.391Z,11.73
2023-01-25T13:31:51.102Z,15.63
2023-01-25T13:34:42.388Z,9.00
2023-01-25T13:37:21.806Z,10.75
2023-01-25T13:42:38.663Z,9.85
2023-01-25T13:45:18.673Z,11.13
2023-01-25T13:48:01.595Z,12.20
2023-01-25T13:50:40.157Z,10.15
2023-01-25T13:53:21.370Z,15.20
2023-01-25T13:55:54.974Z,11.65
2023-01-25T13:58:31.167Z,12.98
2023-01-25T14:01:02.713Z,11.85
2023-01-25T14:03:51.739Z,12.48
2023-01-25T14:06:20.661Z,14.30
2023-01-25T14:08:50.084Z,13.05
2023-01-25T14:11:26.587Z,10.70
2023-01-25T14:14:20.589Z,12.80
2023-01-25T14:17:01.192Z,12.98
2023-01-25T14:19:30.112Z,13.35
2023-01-25T14:22:15.715Z,12.18
2023-01-25T14:24:42.870Z,11.55
2023-01-25T14:27:17.255Z,14.25
2023-01-25T14:29:48.869Z,15.73
2023-01-25T14:32:20.897Z,14.32
2023-01-25T14:34:48.207Z,12.43
2023-01-25T14:37:20.998Z,14.55
2023-01-25T14:39:51.120Z,15.80
2023-01-25T14:42:19.067Z,14.13
2023-01-25T14:44:46.517Z,11.15
2023-01-25T14:47:31.239Z,12.98
2023-01-25T14:50:34.285Z,13.38
2023-01-25T14:53:16.883Z,13.48
2023-01-25T14:55:46.349Z,16.88
2023-01-25T15:00:52.690Z,14.23
2023-01-25T15:03:22.500Z,13.13
2023-01-25T15:05:49.815Z,14.98
2023-01-25T15:08:39.521Z,13.23
2023-01-25T15:11:45.323Z,16.50
2023-01-25T15:14:18.907Z,16.90
2023-01-25T15:16:46.413Z,14.85
2023-01-25T15:19:31.086Z,16.90
2023-01-25T15:22:00.533Z,12.90
2023-01-25T15:24:28.399Z,13.38
2023-01-25T15:26:56.426Z,13.52
2023-01-25T15:29:27.198Z,17.50
2023-01-25T15:31:56.671Z,16.55
2023-01-25T15:34:32.602Z,15.10
2023-01-25T15:36:59.685Z,16.02
2023-01-25T15:39:27.334Z,13.05
2023-01-25T15:41:54.457Z,13.60
2023-01-25T15:44:22.070Z,14.65
2023-01-25T15:46:52.322Z,12.63
2023-01-25T15:49:28.219Z,11.93
2023-01-25T15:51:56.220Z,14.23
2023-01-25T15:54:24.589Z,13.65
2023-01-25T15:56:56.607Z,14.32
2023-01-25T15:59:24.105Z,13.68
2023-01-25T16:01:51.341Z,13.43
2023-01-25T16:04:18.428Z,16.13
2023-01-25T16:06:45.702Z,14.90
2023-01-25T16:09:17.030Z,13.60
2023-01-25T16:11:45.635Z,10.48
2023-01-25T16:14:12.779Z,16.63
2023-01-25T16:16:46.132Z,13.18
2023-01-25T16:19:15.815Z,12.38
2023-01-25T16:21:43.807Z,14.98
2023-01-25T16:24:11.921Z,16.60
2023-01-25T16:26:51.007Z,14.75
2023-01-25T16:29:18.242Z,14.77
2023-01-25T16:31:45.588Z,13.10
2023-01-25T16:34:12.843Z,12.90
2023-01-25T16:36:40.163Z,14.40
2023-01-25T16:39:34.206Z,14.45
2023-01-25T16:42:02.716Z,14.73
2023-01-25T16:44:30.167Z,12.93
2023-01-25T16:46:57.660Z,14.40
2023-01-25T16:49:27.451Z,13.48
2023-01-25T16:51:55.825Z,13.38
2023-01-25T16:54:24.476Z,13.52
2023-01-25T16:59:22.365Z,16.13
2023-01-25T17:01:51.727Z,13.55
2023-01-25T17:04:18.895Z,12.10
2023-01-25T17:06:49.574Z,13.57
2023-01-25T17:09:24.110Z,14.40
2023-01-25T17:11:55.443Z,14.05
2023-01-25T17:14:23.321Z,15.80
2023-01-25T17:16:53.846Z,14.00
2023-01-25T17:19:21.517Z,14.82
2023-01-25T17:21:48.595Z,15.15
2023-01-25T17:24:19.403Z,15.68
2023-01-25T17:26:46.884Z,19.33
2023-01-25T17:29:14.399Z,17.25
2023-01-25T17:31:42.583Z,15.13
2023-01-25T17:34:16.366Z,16.92
2023-01-25T17:36:45.385Z,14.98
2023-01-25T17:39:15.553Z,16.92
2023-01-25T17:41:43.853Z,15.30
2023-01-25T17:44:11.544Z,13.82
2023-01-25T17:46:38.808Z,14.82
2023-01-25T17:49:08.520Z,16.45
2023-01-25T17:51:36.585Z,16.02
2023-01-25T17:54:05.418Z,15.60
2023-01-25T17:56:34.038Z,16.10
2023-01-25T17:59:02.466Z,14.80
2023-01-25T18:01:32.329Z,12.90
2023-01-25T18:04:00.781Z,15.63
2023-01-25T18:06:29.903Z,15.32
2023-01-25T18:09:03.031Z,15.98
2023-01-25T18:11:32.908Z,17.40
2023-01-25T18:14:03.698Z,14.38
2023-01-25T18:16:32.352Z,15.20
2023-01-25T18:19:01.408Z,14.13
2023-01-25T18:21:31.851Z,14.50
2023-01-25T18:24:02.441Z,19.40
2023-01-25T18:26:33.509Z,16.50
2023-01-25T18:29:40.672Z,17.52
2023-01-25T18:32:08.021Z,18.70
2023-01-25T18:34:39.016Z,16.48
2023-01-25T18:37:18.933Z,16.42
2023-01-25T18:39:52.013Z,19.73
2023-01-25T18:42:20.617Z,18.23
2023-01-25T18:44:50.464Z,15.70
2023-01-25T18:47:20.042Z,15.50
2023-01-25T18:52:19.528Z,18.70
2023-01-25T18:54:46.950Z,16.15
2023-01-25T18:57:15.046Z,14.75
2023-01-25T18:59:42.721Z,17.03
2023-01-25T19:02:12.654Z,14.18
2023-01-25T19:04:40.456Z,18.67
2023-01-25T19:07:07.706Z,15.98
2023-01-25T19:09:34.992Z,15.90
2023-01-25T19:12:02.074Z,14.88
2023-01-25T19:14:29.101Z,15.82
2023-01-25T19:16:56.796Z,16.50
2023-01-25T19:19:24.143Z,12.90
2023-01-25T19:21:51.705Z,16.02
2023-01-25T19:24:21.085Z,17.75
2023-01-25T19:26:48.245Z,20.15
2023-01-25T19:29:15.871Z,17.08
2023-01-25T19:31:43.329Z,18.15
2023-01-25T19:34:10.722Z,18.45
2023-01-25T19:36:43.799Z,19.73
2023-01-25T19:39:11.766Z,20.55
2023-01-25T19:41:39.102Z,18.15
2023-01-25T19:44:07.864Z,22.15
2023-01-25T19:46:36.221Z,21.30
2023-01-25T19:49:06.056Z,23.17
2023-01-25T19:51:35.545Z,20.08
2023-01-25T19:54:05.260Z,18.33
2023-01-25T19:56:41.068Z,16.70
2023-01-25T19:59:14.083Z,19.25
2023-01-25T20:01:45.243Z,19.92
2023-01-25T20:04:15.537Z,20.38
2023-01-25T20:06:46.303Z,19.92
2023-01-25T20:09:18.690Z,21.40
2023-01-25T20:11:47.339Z,22.67
2023-01-25T20:14:15.117Z,28.67
2023-01-25T20:16:42.152Z,23.55
2023-01-25T20:19:12.052Z,21.92
2023-01-25T20:21:39.973Z,22.35
2023-01-25T20:24:09.923Z,21.77
2023-01-25T20:26:39.808Z,20.70
2023-01-25T20:29:07.911Z,22.70
2023-01-25T20:31:41.170Z,24.08
2023-01-25T20:34:12.698Z,21.50
2023-01-25T20:36:41.560Z,24.70
2023-01-25T20:39:11.089Z,19.70
2023-01-25T20:41:38.143Z,20.05
2023-01-25T20:44:08.677Z,20.52
2023-01-25T20:46:38.752Z,22.75
2023-01-25T20:49:10.540Z,20.48
2023-01-25T20:51:37.754Z,20.45
2023-01-25T20:54:04.880Z,19.83
2023-01-25T20:56:32.787Z,20.80
2023-01-25T20:58:59.817Z,23.70
2023-01-25T21:01:33.387Z,24.60
2023-01-25T21:04:00.457Z,22.95
2023-01-25T21:06:28.631Z,20.48
2023-01-25T21:08:55.936Z,23.08
2023-01-25T21:11:26.308Z,23.50
2023-01-25T21:13:57.475Z,21.58
2023-01-25T21:16:24.613Z,22.10
2023-01-25T21:18:54.541Z,22.67
2023-01-25T21:21:34.668Z,22.63
2023-01-25T21:24:02.952Z,21.98
2023-01-25T21:26:33.024Z,22.67
2023-01-25T21:29:01.465Z,20.13
2023-01-25T21:31:32.799Z,22.10
2023-01-25T21:34:01.290Z,23.38
2023-01-25T21:36:28.756Z,24.30
2023-01-25T21:38:56.092Z,24.45
2023-01-25T21:41:25.836Z,20.63
2023-01-25T21:44:12.791Z,21.55
2023-01-25T21:46:40.474Z,20.42
2023-01-25T21:49:28.211Z,18.92
2023-01-25T21:52:02.124Z,17.75
2023-01-25T21:54:32.176Z,17.85
2023-01-25T21:57:00.668Z,15.63
2023-01-25T21:59:27.921Z,18.90
2023-01-25T22:01:55.800Z,16.77
2023-01-25T22:04:24.756Z,15.05
2023-01-25T22:06:54.926Z,15.50
2023-01-25T22:09:23.169Z,14.30
2023-01-25T22:11:51.035Z,15.82
2023-01-25T22:14:24.883Z,14.60
2023-01-25T22:16:54.307Z,16.42
2023-01-25T22:19:21.355Z,11.10
2023-01-25T22:21:48.531Z,13.45
2023-01-25T22:24:16.298Z,11.77
2023-01-25T22:26:50.794Z,12.18
2023-01-25T22:29:17.809Z,11.65
2023-01-25T22:31:44.822Z,12.48
2023-01-25T22:34:12.079Z,13.23
2023-01-25T22:36:39.067Z,12.48
2023-01-25T22:39:06.631Z,13.30
2023-01-25T22:41:36.904Z,18.65
2023-01-25T22:44:04.580Z,12.23
2023-01-25T22:46:31.751Z,17.73
2023-01-25T22:48:59.247Z,14.57
2023-01-25T22:51:29.292Z,13.23
2023-01-25T22:53:57.598Z,12.45
2023-01-25T22:56:31.819Z,12.13
2023-01-25T22:58:59.860Z,11.50
2023-01-25T23:01:29.814Z,12.00
2023-01-25T23:03:57.283Z,11.13
2023-01-25T23:06:27.374Z,12.35
2023-01-25T23:08:59.920Z,11.07
2023-01-25T23:11:35.450Z,12.88
2023-01-25T23:14:26.038Z,13.15
2023-01-25T23:16:53.497Z,11.52
2023-01-25T23:19:20.480Z,12.70
2023-01-25T23:21:47.507Z,10.40
2023-01-25T23:24:14.538Z,11.20
2023-01-25T23:26:46.591Z,13.40
2023-01-25T23:29:14.491Z,11.60
2023-01-25T23:31:41.975Z,10.23
2023-01-25T23:34:11.709Z,13.95
2023-01-25T23:36:39.673Z,14.20
2023-01-25T23:39:06.695Z,10.00
2023-01-25T23:41:34.024Z,10.02
2023-01-25T23:44:02.029Z,10.10
